Time;durP1;ratioP1;P1;durP2;ratioP2;P2;SDS_P1;SDS_P2;PMS_P1;PMS_P2;Temp;Humidity;BMP_temperature;BMP_pressure;BME280_temperature;BME280_humidity;BME280_pressure;Samples;Min_cycle;Max_cycle;Signal;HPM_P1;HPM_P2
2022/06/23 00:00:39;;;;;;;7.00;1.70;;;;;;;14.94;60.04;99998.64;106248;1268;24258;-63
2022/06/23 00:03:21;;;;;;;5.20;1.40;;;;;;;14.93;60.21;99992.63;106656;1258;24290;-56
2022/06/23 00:05:58;;;;;;;8.70;1.80;;;;;;;14.91;60.33;99993.80;106041;1270;22536;-53
2022/06/23 00:08:31;;;;;;;6.90;1.70;;;;;;;14.89;60.58;99997.67;106195;1270;22525;-54
2022/06/23 00:11:03;;;;;;;7.80;1.40;;;;;;;14.88;60.53;100002.42;106054;1270;22664;-54
2022/06/23 00:13:38;;;;;;;6.40;1.40;;;;;;;14.87;60.71;100004.18;105951;1270;25221;-52
2022/06/23 00:16:26;;;;;;;8.40;1.40;;;;;;;14.85;60.90;99999.83;105930;1271;22567;-50
2022/06/23 00:19:01;;;;;;;7.50;1.50;;;;;;;14.83;60.95;99999.54;105948;1270;24258;-54
2022/06/23 00:21:35;;;;;;;8.00;1.50;;;;;;;14.82;61.05;100003.36;105900;1270;24338;-51
2022/06/23 00:24:14;;;;;;;8.40;1.60;;;;;;;14.80;61.19;100001.48;106067;1270;23118;-54
2022/06/23 00:26:47;;;;;;;7.80;1.50;;;;;;;14.78;61.33;100004.66;106019;1270;22540;-50
2022/06/23 00:29:23;;;;;;;9.90;1.60;;;;;;;14.76;61.33;100002.56;106190;1270;23850;-53
2022/06/23 00:31:59;;;;;;;6.70;1.50;;;;;;;14.75;61.26;100006.10;106177;1270;23137;-54
2022/06/23 00:34:35;;;;;;;8.60;1.60;;;;;;;14.73;61.45;100006.75;106076;1270;22528;-53
2022/06/23 00:37:16;;;;;;;7.80;1.80;;;;;;;14.70;61.48;100009.16;106097;1270;22647;-51
2022/06/23 00:39:53;;;;;;;7.10;1.70;;;;;;;14.67;61.71;100007.48;105868;1271;22540;-54
2022/06/23 00:42:27;;;;;;;8.70;1.70;;;;;;;14.62;61.83;100005.60;106240;1270;25477;-54
2022/06/23 00:45:03;;;;;;;7.20;1.70;;;;;;;14.56;61.84;100008.87;106119;1270;22528;-51
2022/06/23 00:47:45;;;;;;;5.50;1.40;;;;;;;14.53;61.80;100009.23;105830;1270;22543;-53
2022/06/23 00:50:25;;;;;;;6.60;1.50;;;;;;;14.50;61.99;100018.27;106087;1270;22551;-56
2022/06/23 00:53:03;;;;;;;6.60;1.60;;;;;;;14.43;62.25;100019.40;105995;1270;24262;-54
2022/06/23 00:55:47;;;;;;;6.10;1.30;;;;;;;14.36;62.39;100025.52;106043;1270;22876;-55
2022/06/23 00:58:32;;;;;;;8.50;1.20;;;;;;;14.29;62.69;100022.25;105929;1270;22570;-53
2022/06/23 01:01:16;;;;;;;8.60;1.70;;;;;;;14.22;62.84;100019.83;105887;1271;22543;-51
2022/06/23 01:03:57;;;;;;;6.30;1.80;;;;;;;14.15;62.75;100021.80;105921;1271;25418;-54
2022/06/23 01:06:36;;;;;;;5.30;1.30;;;;;;;14.11;62.65;100020.94;106011;1270;22551;-54
2022/06/23 01:09:23;;;;;;;6.40;1.60;;;;;;;14.08;62.59;100022.02;105956;1270;22522;-53
2022/06/23 01:11:58;;;;;;;6.10;1.30;;;;;;;14.05;62.80;100024.71;106047;1270;25341;-55
2022/06/23 01:14:41;;;;;;;6.30;1.50;;;;;;;14.00;62.98;100028.38;106009;1270;23079;-52
2022/06/23 01:17:18;;;;;;;8.00;1.40;;;;;;;13.98;63.02;100028.58;105827;1270;22524;-54
2022/06/23 01:20:16;;;;;;;5.70;1.30;;;;;;;13.96;62.84;100031.67;105928;1270;25969;-55
2022/06/23 01:23:07;;;;;;;7.00;1.60;;;;;;;13.93;63.30;100034.17;106268;1270;22560;-53
2022/06/23 01:26:05;;;;;;;5.70;1.50;;;;;;;13.86;63.45;100033.61;106216;1270;22528;-53
2022/06/23 01:28:41;;;;;;;6.60;1.50;;;;;;;13.79;63.64;100032.35;106110;1270;22640;-54
2022/06/23 01:31:20;;;;;;;8.30;1.70;;;;;;;13.70;64.10;100035.39;106025;1270;24347;-49
2022/06/23 01:33:57;;;;;;;13.50;2.40;;;;;;;13.61;64.04;100030.42;105963;1270;22547;-53
2022/06/23 01:36:36;;;;;;;5.10;1.50;;;;;;;13.54;64.23;100030.74;106078;1270;22767;-51
2022/06/23 01:39:16;;;;;;;6.90;1.60;;;;;;;13.44;64.44;100032.29;106213;1270;22595;-57
2022/06/23 01:41:56;;;;;;;9.60;1.70;;;;;;;13.35;64.50;100032.45;105960;1270;22557;-51
2022/06/23 01:44:43;;;;;;;6.70;1.50;;;;;;;13.26;64.72;100032.57;106108;1270;24275;-51
2022/06/23 01:47:25;;;;;;;8.90;1.70;;;;;;;13.21;64.55;100037.13;106077;1270;26510;-52
2022/06/23 01:50:05;;;;;;;5.60;1.50;;;;;;;13.16;64.72;100039.24;106094;1270;24367;-53
2022/06/23 01:52:38;;;;;;;5.90;1.40;;;;;;;13.11;64.86;100038.61;105843;1270;22528;-54
2022/06/23 01:55:18;;;;;;;7.40;1.60;;;;;;;13.05;64.87;100038.71;106016;1270;25350;-52
2022/06/23 01:57:56;;;;;;;7.00;1.80;;;;;;;12.99;65.16;100041.82;106055;1270;22549;-50
2022/06/23 02:00:28;;;;;;;5.90;1.50;;;;;;;12.95;65.26;100042.25;105957;1270;22575;-55
2022/06/23 02:03:12;;;;;;;7.30;1.90;;;;;;;12.91;65.19;100044.27;105886;1270;22551;-57
2022/06/23 02:05:51;;;;;;;7.60;1.70;;;;;;;12.87;65.36;100044.29;106096;1269;23825;-52
2022/06/23 02:08:35;;;;;;;7.10;1.50;;;;;;;12.84;65.58;100044.02;106000;1270;22527;-52
2022/06/23 02:11:15;;;;;;;10.10;1.70;;;;;;;12.80;65.71;100046.99;105838;1270;22540;-54
2022/06/23 02:13:53;;;;;;;10.80;2.00;;;;;;;12.74;65.96;100051.25;106210;1270;24315;-51
2022/06/23 02:16:32;;;;;;;6.00;1.70;;;;;;;12.69;66.09;100046.21;105943;1270;25485;-54
2022/06/23 02:19:12;;;;;;;9.10;2.20;;;;;;;12.67;66.09;100051.02;106212;1271;25272;-51
2022/06/23 02:21:51;;;;;;;7.10;1.50;;;;;;;12.64;66.16;100056.45;106072;1270;25176;-53
2022/06/23 02:24:30;;;;;;;8.30;1.80;;;;;;;12.62;66.56;100057.20;106007;1270;25474;-53
2022/06/23 02:27:10;;;;;;;9.80;1.50;;;;;;;12.59;66.87;100060.95;106044;1270;22540;-51
2022/06/23 02:29:50;;;;;;;8.70;1.80;;;;;;;12.55;67.06;100065.14;106183;1270;24380;-53
2022/06/23 02:32:42;;;;;;;9.50;1.60;;;;;;;12.49;67.25;100074.05;106062;1270;25243;-53
2022/06/23 02:35:26;;;;;;;8.80;1.80;;;;;;;12.45;67.27;100075.34;105947;1271;25646;-55
2022/06/23 02:38:09;;;;;;;6.50;1.60;;;;;;;12.44;67.22;100071.86;106169;1270;22554;-54
2022/06/23 02:40:46;;;;;;;10.20;1.90;;;;;;;12.43;67.14;100073.54;105795;1270;22550;-53
2022/06/23 02:43:27;;;;;;;8.60;1.90;;;;;;;12.39;67.41;100073.50;106006;1270;22550;-52
2022/06/23 02:46:46;;;;;;;7.30;1.80;;;;;;;12.35;67.63;100075.91;105993;1270;22528;-53
2022/06/23 02:50:02;;;;;;;9.60;2.10;;;;;;;12.28;67.93;100074.83;105875;1270;25224;-52
2022/06/23 02:53:00;;;;;;;8.90;2.00;;;;;;;12.22;68.07;100077.58;105978;1270;24308;-54
2022/06/23 02:56:02;;;;;;;11.40;2.30;;;;;;;12.19;68.30;100079.17;105516;1276;22922;-52
2022/06/23 02:58:42;;;;;;;6.90;1.60;;;;;;;12.18;68.32;100084.75;104979;1281;22559;-50
2022/06/23 03:01:20;;;;;;;10.40;1.70;;;;;;;12.15;68.30;100089.63;104781;1284;22547;-53
2022/06/23 03:04:00;;;;;;;7.00;1.50;;;;;;;12.13;68.40;100092.54;104983;1284;25515;-51
2022/06/23 03:06:40;;;;;;;6.80;2.00;;;;;;;12.13;68.39;100096.80;104911;1281;22572;-54
2022/06/23 03:09:16;;;;;;;10.70;1.80;;;;;;;12.12;68.60;100099.75;104929;1281;22551;-51
2022/06/23 03:11:56;;;;;;;7.40;1.70;;;;;;;12.09;68.64;100098.86;105594;1280;26521;-52
2022/06/23 03:14:35;;;;;;;;;;;;;;;12.08;68.54;100102.26;105487;1281;25304;-50
2022/06/23 03:17:20;;;;;;;8.40;1.80;;;;;;;12.10;68.66;100106.66;105031;1281;24437;-53
2022/06/23 03:20:02;;;;;;;7.80;2.00;;;;;;;12.12;68.65;100109.38;105030;1281;25624;-53
2022/06/23 03:22:39;;;;;;;16.50;2.10;;;;;;;12.14;68.97;100116.58;104706;1282;22544;-52
2022/06/23 03:25:26;;;;;;;9.20;1.80;;;;;;;12.14;69.24;100116.63;104919;1281;25289;-52
2022/06/23 03:28:15;;;;;;;5.80;1.70;;;;;;;12.13;69.66;100117.58;105044;1281;22570;-57
2022/06/23 03:30:51;;;;;;;9.30;1.80;;;;;;;12.12;69.78;100118.23;105105;1281;25358;-54
2022/06/23 03:33:31;;;;;;;8.70;1.80;;;;;;;12.13;69.85;100119.05;105183;1276;22538;-53
2022/06/23 03:36:06;;;;;;;7.00;1.50;;;;;;;12.16;69.80;100120.52;105677;1270;22598;-53
2022/06/23 03:41:39;;;;;;;10.50;1.60;;;;;;;12.19;70.42;100121.45;105962;1270;22538;-53
2022/06/23 03:44:20;;;;;;;8.60;2.20;;;;;;;12.21;70.41;100119.18;106028;1268;22574;-53
2022/06/23 03:46:57;;;;;;;6.90;1.90;;;;;;;12.25;70.50;100120.85;105962;1270;25231;-55
2022/06/23 03:49:39;;;;;;;5.40;2.00;;;;;;;12.29;70.84;100122.88;106028;1270;22538;-53
2022/06/23 03:52:21;;;;;;;9.50;2.30;;;;;;;12.34;70.78;100128.73;105997;1270;22527;-55
2022/06/23 03:54:59;;;;;;;9.00;2.20;;;;;;;12.40;70.68;100127.92;106098;1270;22530;-52
2022/06/23 03:57:36;;;;;;;6.60;1.70;;;;;;;12.47;70.91;100130.13;106136;1270;23971;-53
2022/06/23 04:00:24;;;;;;;9.00;2.20;;;;;;;12.52;71.27;100129.05;106076;1270;22598;-57
2022/06/23 04:03:17;;;;;;;6.90;1.90;;;;;;;12.58;71.16;100130.39;106090;1270;25233;-51
2022/06/23 04:06:19;;;;;;;8.10;1.90;;;;;;;12.65;71.02;100124.84;106240;1270;22484;-52
2022/06/23 04:08:58;;;;;;;10.80;2.30;;;;;;;12.75;71.29;100127.79;105544;1278;24417;-52
2022/06/23 04:11:47;;;;;;;8.20;2.20;;;;;;;12.83;71.36;100127.19;105631;1277;25477;-52
2022/06/23 04:14:29;;;;;;;7.80;1.90;;;;;;;12.91;71.76;100132.51;105372;1277;22548;-50
2022/06/23 04:17:10;;;;;;;8.80;2.00;;;;;;;12.97;71.76;100132.24;105470;1277;22566;-52
2022/06/23 04:19:49;;;;;;;11.30;2.30;;;;;;;13.05;71.60;100130.98;105607;1277;22560;-58
2022/06/23 04:22:25;;;;;;;10.20;2.20;;;;;;;13.13;71.49;100131.11;105761;1277;22560;-53
2022/06/23 04:25:00;;;;;;;6.30;1.60;;;;;;;13.22;71.39;100134.79;105575;1277;25228;-53
2022/06/23 04:27:42;;;;;;;9.10;2.00;;;;;;;13.33;71.61;100139.44;105409;1278;24424;-52
2022/06/23 04:30:30;;;;;;;9.30;2.20;;;;;;;13.45;71.69;100144.56;105443;1278;25707;-55
2022/06/23 04:33:05;;;;;;;10.00;2.50;;;;;;;13.60;72.13;100149.23;105723;1278;23406;-53
2022/06/23 04:35:40;;;;;;;7.90;2.00;;;;;;;13.74;71.92;100152.11;105832;1277;22635;-54
2022/06/23 04:38:20;;;;;;;10.20;2.60;;;;;;;13.86;71.91;100156.05;105700;1278;25312;-50
2022/06/23 04:40:55;;;;;;;10.70;2.50;;;;;;;13.98;72.14;100155.98;105359;1277;22554;-54
2022/06/23 04:43:38;;;;;;;13.20;2.80;;;;;;;14.11;72.34;100163.39;105736;1270;22540;-55
2022/06/23 04:46:14;;;;;;;10.80;2.10;;;;;;;14.26;72.27;100163.30;106085;1270;25059;-53
2022/06/23 04:48:53;;;;;;;12.00;2.60;;;;;;;14.40;72.08;100165.40;106302;1270;25418;-53
2022/06/23 04:51:31;;;;;;;15.20;3.20;;;;;;;14.56;72.24;100166.20;105944;1270;22548;-53
2022/06/23 04:54:14;;;;;;;13.60;2.70;;;;;;;14.71;72.04;100167.39;106142;1270;25219;-50
2022/06/23 04:56:50;;;;;;;12.80;3.20;;;;;;;14.84;71.82;100166.58;106111;1270;22529;-54
2022/06/23 04:59:39;;;;;;;15.90;2.30;;;;;;;14.98;72.13;100169.64;106177;1270;25390;-52
2022/06/23 05:02:27;;;;;;;9.20;2.30;;;;;;;15.17;72.06;100171.07;106122;1270;24214;-52
2022/06/23 05:05:05;;;;;;;11.90;2.60;;;;;;;15.38;71.81;100176.08;105800;1270;22609;-52
2022/06/23 05:07:42;;;;;;;10.70;3.00;;;;;;;15.56;71.53;100174.58;106286;1270;25307;-53
2022/06/23 05:10:21;;;;;;;10.80;2.30;;;;;;;15.69;71.27;100179.40;106072;1270;22531;-55
2022/06/23 05:12:58;;;;;;;17.70;3.10;;;;;;;15.86;71.76;100179.35;106225;1270;24330;-53
2022/06/23 05:15:35;;;;;;;11.30;3.20;;;;;;;16.03;70.97;100184.83;105992;1271;23036;-50
2022/06/23 05:18:15;;;;;;;9.10;2.40;;;;;;;16.15;71.15;100188.34;106092;1270;24251;-53
2022/06/23 05:20:53;;;;;;;8.80;2.20;;;;;;;16.30;70.88;100188.64;106287;1270;22568;-52
2022/06/23 05:23:28;;;;;;;10.60;2.20;;;;;;;16.46;70.87;100193.08;107184;1270;22551;-53
2022/06/23 05:26:13;;;;;;;10.40;2.00;;;;;;;16.63;70.71;100193.30;106082;1269;22548;-56
2022/06/23 05:28:51;;;;;;;9.40;2.70;;;;;;;16.82;70.37;100192.09;105870;1270;23038;-53
2022/06/23 05:31:27;;;;;;;10.10;2.50;;;;;;;17.00;70.15;100193.84;105928;1270;25525;-54
2022/06/23 05:34:08;;;;;;;10.60;2.00;;;;;;;17.15;69.95;100198.38;106167;1270;23788;-49
2022/06/23 05:36:50;;;;;;;10.00;1.90;;;;;;;17.32;69.73;100196.91;106036;1270;23025;-55
2022/06/23 05:39:32;;;;;;;11.70;2.20;;;;;;;17.48;69.46;100196.56;106051;1270;22599;-53
2022/06/23 05:42:13;;;;;;;13.20;2.00;;;;;;;17.66;69.06;100198.30;106190;1270;22525;-49
2022/06/23 05:44:51;;;;;;;10.20;2.20;;;;;;;17.80;68.41;100198.73;106117;1270;25246;-51
2022/06/23 05:47:24;;;;;;;8.60;1.60;;;;;;;17.88;68.52;100201.91;106046;1270;25315;-53
2022/06/23 05:49:59;;;;;;;9.00;1.60;;;;;;;18.06;68.60;100204.73;106208;1270;22528;-54
2022/06/23 05:52:38;;;;;;;11.00;1.80;;;;;;;18.20;67.88;100202.52;106115;1270;23812;-57
2022/06/23 05:55:20;;;;;;;10.30;1.60;;;;;;;18.32;67.96;100203.22;106183;1270;22528;-52
2022/06/23 05:57:57;;;;;;;10.50;1.80;;;;;;;18.50;67.79;100206.56;109071;1270;22530;-53
2022/06/23 06:00:33;;;;;;;9.50;1.70;;;;;;;18.67;67.39;100206.11;105979;1270;24389;-53
2022/06/23 06:03:15;;;;;;;8.20;1.70;;;;;;;18.85;67.21;100208.73;106107;1270;24236;-51
2022/06/23 06:05:49;;;;;;;9.90;2.60;;;;;;;19.01;66.62;100214.30;105923;1270;22544;-49
2022/06/23 06:08:26;;;;;;;12.80;1.70;;;;;;;19.12;66.48;100214.52;106110;1270;23994;-53
2022/06/23 06:11:00;;;;;;;11.40;2.00;;;;;;;19.28;66.12;100213.60;106653;1258;22545;-63
2022/06/23 06:13:36;;;;;;;11.50;1.80;;;;;;;19.39;65.87;100213.29;106045;1268;25668;-63
2022/06/23 06:16:08;;;;;;;7.90;1.50;;;;;;;19.50;65.41;100217.93;106119;1267;22519;-62
2022/06/23 06:18:44;;;;;;;10.30;1.70;;;;;;;19.59;65.46;100223.06;107018;1267;22985;-63
2022/06/23 06:21:20;;;;;;;8.90;1.60;;;;;;;19.72;65.46;100226.28;106176;1268;25992;-62
2022/06/23 06:23:59;;;;;;;11.50;1.80;;;;;;;19.88;65.10;100226.34;106301;1270;24489;-62
2022/06/23 06:26:35;;;;;;;8.20;2.20;;;;;;;20.02;64.38;100225.53;106410;1270;22560;-63
2022/06/23 06:29:16;;;;;;;10.80;2.00;;;;;;;20.15;64.39;100230.66;106097;1268;22638;-63
2022/06/23 06:31:47;;;;;;;;;;;;;;;20.34;64.08;100236.83;106060;1270;22532;-64
2022/06/23 06:34:24;;;;;;;8.30;2.30;;;;;;;20.46;63.71;100237.41;106206;1268;22627;-63
2022/06/23 06:36:56;;;;;;;8.30;1.80;;;;;;;20.60;63.53;100237.20;106049;1270;22559;-62
2022/06/23 06:39:31;;;;;;;8.10;1.50;;;;;;;20.68;62.63;100241.67;107372;1268;22587;-64
2022/06/23 06:42:06;;;;;;;8.70;1.80;;;;;;;20.70;62.33;100242.55;106120;1268;25324;-63
2022/06/23 06:44:42;;;;;;;7.60;1.60;;;;;;;20.82;62.29;100238.16;106110;1270;25681;-64
2022/06/23 06:47:20;;;;;;;7.20;1.50;;;;;;;21.00;62.44;100235.02;106260;1268;22753;-63
2022/06/23 06:49:53;;;;;;;4.90;1.60;;;;;;;21.17;61.40;100236.39;106194;1270;25345;-63
2022/06/23 06:52:26;;;;;;;7.40;1.40;;;;;;;21.19;60.91;100237.73;105989;1270;22631;-63
2022/06/23 06:55:03;;;;;;;8.70;1.20;;;;;;;21.27;61.23;100240.30;106262;1268;25307;-63
2022/06/23 06:57:41;;;;;;;8.10;1.70;;;;;;;21.41;60.31;100239.38;106089;1270;22599;-63
2022/06/23 07:00:20;;;;;;;8.20;1.80;;;;;;;21.49;60.33;100238.09;106182;1268;25589;-62
2022/06/23 07:02:55;;;;;;;7.10;1.30;;;;;;;21.59;60.32;100243.59;106231;1270;22576;-63
2022/06/23 07:05:33;;;;;;;6.70;1.40;;;;;;;21.73;59.97;100245.33;106198;1270;22816;-63
2022/06/23 07:08:10;;;;;;;6.70;1.20;;;;;;;21.88;59.46;100241.73;106209;1269;22681;-64
2022/06/23 07:10:48;;;;;;;9.00;1.20;;;;;;;22.00;59.06;100244.48;106098;1268;25514;-63
2022/06/23 07:13:29;;;;;;;5.90;1.10;;;;;;;22.13;58.59;100244.01;106164;1268;22522;-64
2022/06/23 07:16:05;;;;;;;6.70;1.00;;;;;;;22.29;57.89;100248.15;105998;1270;22807;-64
2022/06/23 07:18:44;;;;;;;5.20;1.30;;;;;;;22.36;57.35;100249.17;106129;1268;22609;-63
2022/06/23 07:21:20;;;;;;;8.30;1.40;;;;;;;22.44;56.88;100252.32;106287;1269;22647;-63
2022/06/23 07:23:58;;;;;;;7.10;1.00;;;;;;;22.49;56.41;100254.23;106252;1270;24298;-63
2022/06/23 07:26:39;;;;;;;10.90;1.40;;;;;;;22.55;56.39;100261.58;106277;1270;24287;-64
2022/06/23 07:29:21;;;;;;;6.90;0.90;;;;;;;22.68;56.26;100256.25;106139;1270;25620;-64
2022/06/23 07:32:03;;;;;;;9.20;1.10;;;;;;;22.81;55.87;100262.95;105977;1270;22592;-64
2022/06/23 07:34:39;;;;;;;6.70;1.10;;;;;;;22.90;55.04;100267.77;106170;1268;25668;-64
2022/06/23 07:37:18;;;;;;;4.00;0.90;;;;;;;22.99;54.47;100267.86;106240;1268;24262;-65
2022/06/23 07:39:55;;;;;;;5.00;0.80;;;;;;;23.11;54.33;100270.05;106039;1270;24210;-63
2022/06/23 07:42:39;;;;;;;4.80;0.80;;;;;;;23.20;53.89;100269.23;106085;1270;24354;-65
2022/06/23 07:45:18;;;;;;;3.20;0.90;;;;;;;23.33;53.39;100266.92;106093;1270;22707;-64
2022/06/23 07:47:49;;;;;;;5.80;0.80;;;;;;;23.45;52.21;100266.61;106116;1268;27157;-64
2022/06/23 07:50:21;;;;;;;7.90;0.90;;;;;;;23.57;52.17;100262.22;106102;1270;25261;-64
2022/06/23 07:52:54;;;;;;;5.40;1.20;;;;;;;23.70;51.77;100264.00;106114;1270;24846;-65
2022/06/23 07:55:33;;;;;;;2.80;0.60;;;;;;;23.78;51.30;100264.95;106070;1270;25362;-65
2022/06/23 07:58:04;;;;;;;4.80;0.70;;;;;;;23.89;50.84;100265.55;106281;1270;23860;-65
2022/06/23 08:00:40;;;;;;;5.60;0.60;;;;;;;24.02;50.11;100268.85;106398;1268;22528;-66
2022/06/23 08:03:15;;;;;;;6.10;1.00;;;;;;;24.12;49.74;100264.25;106246;1268;25320;-63
2022/06/23 08:05:51;;;;;;;3.70;0.60;;;;;;;24.19;49.34;100270.77;106043;1270;22554;-65
2022/06/23 08:08:26;;;;;;;9.60;0.90;;;;;;;24.29;48.58;100270.42;106336;1268;23912;-65
2022/06/23 08:13:57;;;;;;;4.10;0.60;;;;;;;24.50;47.80;100272.04;106097;1270;22573;-65
2022/06/23 08:19:35;;;;;;;2.50;0.60;;;;;;;24.77;46.92;100272.27;106063;1269;22630;-64
2022/06/23 08:22:12;;;;;;;2.00;0.50;;;;;;;24.89;46.20;100274.73;106197;1270;24109;-65
2022/06/23 08:24:48;;;;;;;1.60;0.40;;;;;;;25.00;45.44;100276.41;106218;1268;22547;-65
2022/06/23 08:27:24;;;;;;;8.00;0.60;;;;;;;25.11;45.20;100279.25;106171;1270;22531;-65
2022/06/23 08:30:01;;;;;;;3.70;0.70;;;;;;;25.20;44.11;100280.34;106265;1270;24313;-64
2022/06/23 08:32:33;;;;;;;2.30;0.40;;;;;;;25.25;44.18;100279.23;106207;1270;22552;-65
2022/06/23 08:35:09;;;;;;;4.40;0.50;;;;;;;25.31;43.85;100276.08;106374;1268;25252;-65
2022/06/23 08:37:46;;;;;;;4.40;0.60;;;;;;;25.38;43.37;100276.02;106360;1267;26242;-62
2022/06/23 08:40:31;;;;;;;4.10;0.70;;;;;;;25.47;42.82;100276.34;106253;1268;22554;-64
2022/06/23 08:43:11;;;;;;;5.10;0.70;;;;;;;25.56;42.55;100282.14;106433;1270;25235;-65
2022/06/23 08:45:50;;;;;;;4.40;0.60;;;;;;;25.62;42.33;100282.13;106201;1268;24333;-64
2022/06/23 08:48:27;;;;;;;3.80;0.60;;;;;;;25.68;42.08;100283.46;106384;1268;22806;-65
2022/06/23 08:51:03;;;;;;;3.20;0.50;;;;;;;25.72;41.65;100278.35;106049;1269;25506;-65
2022/06/23 08:53:41;;;;;;;2.20;0.60;;;;;;;25.73;40.87;100275.14;106138;1270;24440;-66
2022/06/23 08:56:20;;;;;;;2.70;0.60;;;;;;;25.75;40.96;100277.19;106179;1268;22643;-65
2022/06/23 08:58:58;;;;;;;5.00;0.50;;;;;;;25.79;40.61;100270.22;106076;1270;24431;-65
2022/06/23 09:01:40;;;;;;;4.10;0.70;;;;;;;25.82;40.47;100266.07;106051;1268;22544;-64
2022/06/23 09:04:22;;;;;;;3.20;0.50;;;;;;;25.89;40.77;100260.95;106202;1268;22541;-65
2022/06/23 09:06:58;;;;;;;3.80;0.60;;;;;;;25.99;40.80;100265.83;106046;1270;23773;-65
2022/06/23 09:09:38;;;;;;;4.30;0.80;;;;;;;26.06;40.11;100258.71;106124;1268;22550;-65
2022/06/23 09:12:22;;;;;;;3.90;0.60;;;;;;;26.01;39.36;100261.12;106146;1270;24434;-65
2022/06/23 09:15:15;;;;;;;6.70;0.80;;;;;;;26.03;39.76;100260.81;106227;1269;23806;-65
2022/06/23 09:18:04;;;;;;;2.50;0.40;;;;;;;26.17;39.59;100260.23;106339;1270;22657;-65
2022/06/23 09:20:57;;;;;;;3.30;0.50;;;;;;;26.27;39.23;100256.46;106121;1270;25258;-66
2022/06/23 09:23:46;;;;;;;5.20;0.70;;;;;;;26.32;39.28;100260.08;105993;1270;24238;-65
2022/06/23 09:26:25;;;;;;;4.20;0.60;;;;;;;26.44;38.57;100256.76;106158;1270;22539;-66
2022/06/23 09:28:59;;;;;;;3.50;0.80;;;;;;;26.51;38.53;100262.91;106090;1270;22572;-66
2022/06/23 09:31:44;;;;;;;2.20;0.70;;;;;;;26.58;38.16;100261.79;106161;1268;22600;-66
2022/06/23 09:34:25;;;;;;;2.90;0.60;;;;;;;26.60;37.66;100259.05;106263;1268;22525;-65
2022/06/23 09:37:21;;;;;;;3.50;0.70;;;;;;;26.63;37.75;100262.05;106207;1269;25328;-66
2022/06/23 09:40:15;;;;;;;2.70;0.50;;;;;;;26.72;37.42;100273.93;106197;1269;24307;-66
2022/06/23 09:43:03;;;;;;;4.50;0.60;;;;;;;26.76;37.09;100272.48;106107;1270;22704;-66
2022/06/23 09:45:54;;;;;;;4.20;0.60;;;;;;;26.78;36.79;100266.20;106284;1268;22541;-66
2022/06/23 09:48:42;;;;;;;5.10;0.40;;;;;;;26.78;36.29;100267.64;106402;1270;22538;-66
2022/06/23 09:51:39;;;;;;;2.50;0.50;;;;;;;26.81;35.79;100275.44;106109;1270;25248;-66
2022/06/23 09:54:38;;;;;;;2.70;0.40;;;;;;;26.81;35.35;100277.76;106163;1270;22542;-65
2022/06/23 09:58:00;;;;;;;3.20;0.60;;;;;;;26.73;34.32;100277.36;106055;1270;22972;-66
2022/06/23 10:00:42;;;;;;;3.60;0.60;;;;;;;26.69;34.56;100280.53;105708;1274;22551;-66
2022/06/23 10:03:28;;;;;;;2.50;0.50;;;;;;;26.72;34.46;100277.53;105678;1274;24403;-66
2022/06/23 10:06:28;;;;;;;2.50;0.50;;;;;;;26.73;34.18;100271.53;105699;1274;22537;-66
2022/06/23 10:09:09;;;;;;;2.70;0.60;;;;;;;26.69;34.06;100264.71;105587;1274;22561;-66
2022/06/23 10:12:08;;;;;;;4.30;0.70;;;;;;;26.66;34.09;100266.73;105723;1274;22535;-66
2022/06/23 10:14:55;;;;;;;3.60;0.60;;;;;;;26.69;34.61;100264.34;105706;1274;24321;-67
2022/06/23 10:17:52;;;;;;;3.50;0.40;;;;;;;26.79;34.37;100263.12;101650;1273;5438260;-67
2022/06/23 10:20:42;;;;;;;6.20;0.70;;;;;;;26.95;34.50;100264.02;105966;1273;22665;-66
2022/06/23 10:23:17;;;;;;;;;;;;;;;27.05;34.49;100259.77;105860;1273;22658;-66
2022/06/23 10:26:15;;;;;;;2.90;0.60;;;;;;;27.14;34.52;100268.57;105783;1273;24117;-66
2022/06/23 10:29:33;;;;;;;3.50;0.60;;;;;;;27.23;33.98;100261.36;105716;1273;22598;-66
2022/06/23 10:32:28;;;;;;;2.50;0.40;;;;;;;27.23;33.98;100258.95;105544;1279;25641;-67
2022/06/23 10:35:14;;;;;;;2.20;0.40;;;;;;;27.29;33.99;100254.10;105598;1279;22544;-66
2022/06/23 10:38:03;;;;;;;2.30;0.50;;;;;;;27.39;34.33;100250.35;105577;1276;25520;-66
2022/06/23 10:41:12;;;;;;;3.10;0.50;;;;;;;27.50;33.95;100247.50;105598;1276;22537;-66
2022/06/23 10:43:58;;;;;;;4.40;0.50;;;;;;;27.61;33.91;100239.05;105485;1276;22540;-67
2022/06/23 10:46:40;;;;;;;5.90;0.80;;;;;;;27.73;34.11;100243.09;105721;1276;23081;-67
2022/06/23 10:49:40;;;;;;;2.20;0.30;;;;;;;27.81;33.81;100243.17;105687;1276;25410;-66
2022/06/23 10:52:54;;;;;;;3.80;0.50;;;;;;;27.86;33.52;100245.11;105673;1276;22545;-66
2022/06/23 10:55:48;;;;;;;3.70;0.50;;;;;;;27.85;32.55;100248.84;105687;1276;22770;-67
2022/06/23 10:58:54;;;;;;;2.60;0.50;;;;;;;27.74;32.54;100244.91;105594;1276;22997;-67
2022/06/23 11:01:44;;;;;;;3.70;0.50;;;;;;;27.69;32.48;100243.23;105499;1275;25675;-67
2022/06/23 11:04:43;;;;;;;3.40;0.60;;;;;;;27.64;32.35;100240.41;105614;1274;22550;-67
2022/06/23 11:07:36;;;;;;;5.40;0.60;;;;;;;27.60;32.65;100245.30;105120;1276;23523;-67
2022/06/23 11:10:23;;;;;;;3.10;0.60;;;;;;;27.61;32.54;100243.67;105541;1276;25276;-67
2022/06/23 11:13:07;;;;;;;4.50;0.60;;;;;;;27.65;32.73;100250.50;105739;1276;22570;-67
2022/06/23 11:15:48;;;;;;;6.40;0.50;;;;;;;27.68;32.56;100244.05;105479;1276;22542;-67
2022/06/23 11:18:35;;;;;;;3.10;0.50;;;;;;;27.64;32.21;100239.02;105424;1276;22637;-67
2022/06/23 11:21:22;;;;;;;5.20;0.70;;;;;;;27.57;32.14;100234.99;105387;1276;22555;-67
2022/06/23 11:24:04;;;;;;;2.60;0.40;;;;;;;27.40;31.74;100228.65;105277;1279;22783;-67
2022/06/23 11:26:51;;;;;;;3.50;0.70;;;;;;;27.31;31.87;100229.19;105492;1277;22577;-67
2022/06/23 11:29:54;;;;;;;3.00;0.50;;;;;;;27.25;31.67;100230.13;105449;1276;23973;-67
2022/06/23 11:32:40;;;;;;;3.80;0.70;;;;;;;27.26;32.58;100226.79;105529;1281;22681;-67
2022/06/23 11:35:26;;;;;;;4.60;0.70;;;;;;;27.39;32.91;100230.46;105193;1281;24465;-66
2022/06/23 11:38:10;;;;;;;4.90;0.60;;;;;;;27.53;32.80;100226.38;105358;1281;22572;-68
2022/06/23 11:41:01;;;;;;;2.40;0.50;;;;;;;27.61;32.75;100225.89;105225;1281;22562;-67
2022/06/23 11:43:53;;;;;;;1.80;0.50;;;;;;;27.63;32.65;100223.98;105201;1281;22535;-67
2022/06/23 11:46:35;;;;;;;5.90;0.50;;;;;;;27.62;32.61;100222.75;105568;1276;22525;-68
2022/06/23 11:49:30;;;;;;;3.60;0.50;;;;;;;27.67;32.92;100217.45;105449;1276;25402;-67
2022/06/23 11:52:26;;;;;;;1.90;0.40;;;;;;;27.77;32.56;100219.19;105472;1276;24272;-67
2022/06/23 11:55:17;;;;;;;4.30;0.70;;;;;;;27.80;32.41;100217.32;105719;1276;25401;-68
2022/06/23 11:58:15;;;;;;;2.50;0.40;;;;;;;27.82;32.48;100220.48;105673;1276;23484;-68
2022/06/23 12:00:57;;;;;;;3.90;0.60;;;;;;;27.91;32.58;100222.87;107713;1276;22547;-67
2022/06/23 12:04:03;;;;;;;1.70;0.40;;;;;;;27.98;32.43;100217.54;105780;1276;25425;-68
2022/06/23 12:06:50;;;;;;;2.80;0.60;;;;;;;28.07;32.43;100213.23;105696;1278;22522;-68
2022/06/23 12:09:28;;;;;;;5.40;0.90;;;;;;;28.17;32.57;100222.27;105721;1270;22523;-67
2022/06/23 12:12:05;;;;;;;4.40;0.50;;;;;;;28.23;32.25;100225.30;107112;1258;24300;-52
2022/06/23 12:14:38;;;;;;;2.40;0.50;;;;;;;28.22;31.91;100223.12;106057;1267;22698;-52
2022/06/23 12:17:16;;;;;;;5.10;0.60;;;;;;;28.16;31.84;100222.63;106070;1267;24531;-50
2022/06/23 12:19:54;;;;;;;3.80;0.70;;;;;;;28.15;31.91;100223.15;106008;1268;22528;-51
2022/06/23 12:22:33;;;;;;;5.30;0.50;;;;;;;28.16;31.35;100221.37;106114;1269;22525;-52
2022/06/23 12:25:17;;;;;;;4.40;0.60;;;;;;;28.09;31.54;100219.67;106285;1268;24335;-54
2022/06/23 12:27:55;;;;;;;3.30;0.70;;;;;;;28.12;31.55;100222.02;106167;1268;26254;-51
2022/06/23 12:30:30;;;;;;;2.80;0.50;;;;;;;28.17;31.72;100217.25;106106;1268;22538;-53
2022/06/23 12:33:08;;;;;;;2.30;0.50;;;;;;;28.23;31.32;100217.41;106126;1268;25302;-53